East Port Orchard, Washington
Current Conditions -  °F | °C
As of 1:15 PM on Wednesday 26 Nov 2014 (Local Time) from KPWT Reporting Station
Overcast Overcast  
Wind Chill: 55°   Ceiling: 500
Heat Index: 55°   Visibility: 10mi
Dew Point: 54°   Wind: 13mph
Humidity: 94%   Direction: 200°SSW
Pressure: 30.08"   Gusts: NA
Location:  47.5378°N, 122.589°W
Report Text: KPWT 262115Z AUTO 20011KT 10SM OVC005 13/12 A3008 RMK AO1
Loading
Personal Weather Stations






























Interactive Weather Map New forecast layout! Learn more

10-Day Weather Forecast

Advertisements
Track Severe Weather on mobile